Time;durP1;ratioP1;P1;durP2;ratioP2;P2;SDS_P1;SDS_P2;PMS_P1;PMS_P2;Temp;Humidity;BMP_temperature;BMP_pressure;BME280_temperature;BME280_humidity;BME280_pressure;Samples;Min_cycle;Max_cycle;Signal;HPM_P1;HPM_P2
2021/03/14 00:01:17;;;;;;;3.77;0.30;;;2.90;99.90;;;;;;4997429;28;20399;-87
2021/03/14 00:03:42;;;;;;;2.53;0.30;;;2.80;99.90;;;;;;4997766;28;20802;-88
2021/03/14 00:06:08;;;;;;;2.20;0.20;;;2.80;99.90;;;;;;4997341;28;20086;-87
2021/03/14 00:08:34;;;;;;;0.87;0.30;;;2.90;99.90;;;;;;4997773;28;20021;-88
2021/03/14 00:11:02;;;;;;;2.20;0.30;;;2.80;99.90;;;;;;4997694;28;20033;-88
2021/03/14 00:13:30;;;;;;;1.23;0.27;;;2.80;99.90;;;;;;4997895;28;20742;-88
2021/03/14 00:15:57;;;;;;;1.37;0.20;;;2.90;99.90;;;;;;4998858;28;20396;-88
2021/03/14 00:18:34;;;;;;;2.20;0.30;;;2.90;99.90;;;;;;4997782;28;20018;-88
2021/03/14 00:21:00;;;;;;;1.67;0.20;;;3.00;99.90;;;;;;5000915;28;20179;-87
2021/03/14 00:23:27;;;;;;;1.87;0.30;;;3.00;99.90;;;;;;4998175;28;20096;-88
2021/03/14 00:25:56;;;;;;;2.00;0.30;;;3.00;99.90;;;;;;4996696;28;20049;-88
2021/03/14 00:28:23;;;;;;;0.73;0.20;;;3.20;99.90;;;;;;5005596;28;20044;-87
2021/03/14 00:30:49;;;;;;;1.03;0.30;;;3.10;99.90;;;;;;4999013;28;20563;-87
2021/03/14 00:33:15;;;;;;;2.13;0.30;;;3.20;99.90;;;;;;4996673;28;20189;-87
2021/03/14 00:35:41;;;;;;;1.20;0.30;;;3.20;99.90;;;;;;4995693;28;20052;-87
2021/03/14 00:38:07;;;;;;;0.70;0.30;;;3.20;99.90;;;;;;4995064;28;20018;-87
2021/03/14 00:40:33;;;;;;;0.67;0.27;;;3.30;99.90;;;;;;4996771;28;20018;-87
2021/03/14 00:43:01;;;;;;;2.33;0.30;;;3.30;99.90;;;;;;5008508;28;20132;-87
2021/03/14 00:45:31;;;;;;;1.57;0.30;;;3.30;99.90;;;;;;4995673;28;20029;-88
2021/03/14 00:47:58;;;;;;;1.70;0.20;;;3.30;99.90;;;;;;4996150;28;20022;-87
2021/03/14 00:50:25;;;;;;;1.60;0.30;;;3.30;99.90;;;;;;5013435;28;20024;-88
2021/03/14 00:52:50;;;;;;;1.13;0.40;;;3.30;99.90;;;;;;4996062;28;20030;-88
2021/03/14 00:55:16;;;;;;;1.77;0.33;;;3.30;99.90;;;;;;5002783;28;20110;-88
2021/03/14 00:57:41;;;;;;;1.57;0.40;;;3.20;99.90;;;;;;4995920;28;20403;-88
2021/03/14 01:00:08;;;;;;;1.33;0.30;;;3.10;99.90;;;;;;4995590;28;20032;-87
2021/03/14 01:02:33;;;;;;;1.00;0.40;;;3.20;99.90;;;;;;4996592;28;20120;-87
2021/03/14 01:04:59;;;;;;;1.57;0.23;;;3.10;99.90;;;;;;4995396;28;20090;-87
2021/03/14 01:07:24;;;;;;;0.80;0.20;;;3.00;99.90;;;;;;4998359;28;20121;-87
2021/03/14 01:09:50;;;;;;;1.00;0.20;;;2.90;99.90;;;;;;4998719;28;20025;-87
2021/03/14 01:12:16;;;;;;;1.20;0.10;;;2.90;99.90;;;;;;4995587;28;20030;-87
2021/03/14 01:14:41;;;;;;;1.00;0.30;;;2.90;99.90;;;;;;4995791;28;20032;-87
2021/03/14 01:17:07;;;;;;;0.27;0.20;;;2.80;99.90;;;;;;4989708;28;20417;-86
2021/03/14 01:19:33;;;;;;;0.33;0.10;;;2.80;99.90;;;;;;5013677;28;20028;-87
2021/03/14 01:21:58;;;;;;;0.27;0.10;;;2.70;99.90;;;;;;4995889;28;20453;-87
2021/03/14 01:24:24;;;;;;;2.00;0.20;;;2.70;99.90;;;;;;5013427;28;20097;-87
2021/03/14 01:26:51;;;;;;;0.77;0.20;;;2.70;99.90;;;;;;4996313;28;20026;-87
2021/03/14 01:29:16;;;;;;;0.27;0.17;;;2.70;99.90;;;;;;5004599;28;20041;-87
2021/03/14 01:31:42;;;;;;;0.50;0.17;;;2.70;99.90;;;;;;4994782;28;20029;-87
2021/03/14 01:34:07;;;;;;;0.20;0.10;;;2.70;99.90;;;;;;4996069;28;20426;-87
2021/03/14 01:36:33;;;;;;;2.63;0.40;;;2.70;99.90;;;;;;4996039;28;20113;-87
2021/03/14 01:38:59;;;;;;;0.63;0.27;;;2.70;99.90;;;;;;5003094;28;20431;-87
2021/03/14 01:41:24;;;;;;;0.77;0.20;;;2.70;99.90;;;;;;4997797;28;20034;-87
2021/03/14 01:43:50;;;;;;;3.77;0.20;;;2.70;99.90;;;;;;4998392;28;20025;-88
2021/03/14 01:46:16;;;;;;;1.13;0.37;;;2.70;99.90;;;;;;4996425;28;20026;-87
2021/03/14 01:48:41;;;;;;;0.53;0.20;;;2.80;99.90;;;;;;5008715;28;20030;-87
2021/03/14 01:51:07;;;;;;;0.40;0.10;;;2.80;99.90;;;;;;4997066;28;20026;-88
2021/03/14 01:53:33;;;;;;;0.30;0.10;;;2.80;99.90;;;;;;4994794;28;20432;-87
2021/03/14 01:56:00;;;;;;;0.20;0.10;;;2.80;99.90;;;;;;4997699;28;20104;-87
2021/03/14 01:58:26;;;;;;;0.57;0.10;;;2.80;99.90;;;;;;4995689;28;20022;-87
2021/03/14 02:00:53;;;;;;;0.77;0.20;;;2.70;99.90;;;;;;4995421;28;20704;-86
2021/03/14 02:03:20;;;;;;;1.13;0.10;;;2.80;99.90;;;;;;4990667;28;20026;-87
2021/03/14 02:05:46;;;;;;;0.70;0.20;;;2.80;99.90;;;;;;4995626;28;20040;-87
2021/03/14 02:08:12;;;;;;;1.27;0.10;;;2.70;99.90;;;;;;4995209;28;20033;-87
2021/03/14 02:10:38;;;;;;;0.20;0.10;;;2.80;99.90;;;;;;4998131;28;21567;-87
2021/03/14 02:13:06;;;;;;;0.30;0.10;;;2.70;99.90;;;;;;4994920;28;20036;-87
2021/03/14 02:15:35;;;;;;;0.10;0.03;;;2.80;99.90;;;;;;4995798;28;20479;-87
2021/03/14 02:18:03;;;;;;;0.87;0.10;;;2.80;99.90;;;;;;4994439;28;20022;-87
2021/03/14 02:20:32;;;;;;;0.20;0.10;;;2.80;99.90;;;;;;4994860;28;20026;-87
2021/03/14 02:23:24;;;;;;;0.30;0.10;;;2.80;99.90;;;;;;4992004;28;20061;-87
2021/03/14 02:26:01;;;;;;;0.73;0.10;;;2.90;99.90;;;;;;4993647;28;20113;-87
2021/03/14 02:28:28;;;;;;;0.43;0.10;;;2.90;99.90;;;;;;4995654;28;20042;-88
2021/03/14 02:30:54;;;;;;;0.00;0.00;;;2.90;99.90;;;;;;5012394;28;20119;-87
2021/03/14 02:33:25;;;;;;;0.63;0.10;;;2.90;99.90;;;;;;5016447;28;20050;-87
2021/03/14 02:35:54;;;;;;;0.70;0.10;;;2.90;99.90;;;;;;4996881;28;20462;-87
2021/03/14 02:38:20;;;;;;;0.47;0.20;;;2.80;99.90;;;;;;5009124;28;20030;-87
2021/03/14 02:40:47;;;;;;;0.33;0.10;;;2.80;99.90;;;;;;4994807;28;20490;-87
2021/03/14 02:43:13;;;;;;;0.50;0.13;;;2.80;99.90;;;;;;4996741;28;20498;-87
2021/03/14 02:45:40;;;;;;;0.30;0.10;;;2.80;99.90;;;;;;4998870;28;20030;-87
2021/03/14 02:48:07;;;;;;;0.50;0.10;;;2.80;99.90;;;;;;4997605;28;20105;-87
2021/03/14 02:50:33;;;;;;;0.40;0.10;;;2.80;99.90;;;;;;4994300;28;20028;-87
2021/03/14 02:52:59;;;;;;;1.07;0.20;;;2.80;99.90;;;;;;4994335;28;20022;-87
2021/03/14 02:55:26;;;;;;;2.70;0.20;;;2.80;99.90;;;;;;4997211;28;20081;-88
2021/03/14 02:57:54;;;;;;;2.30;0.30;;;2.80;99.90;;;;;;4994670;28;20045;-86
2021/03/14 03:00:24;;;;;;;1.07;0.23;;;2.80;99.90;;;;;;4991300;28;20018;-87
2021/03/14 03:02:53;;;;;;;0.40;0.20;;;2.80;99.90;;;;;;4999696;28;20029;-87
2021/03/14 03:05:20;;;;;;;0.53;0.27;;;2.70;99.90;;;;;;4994996;28;20166;-87
2021/03/14 03:07:55;;;;;;;0.70;0.20;;;2.70;99.90;;;;;;5001958;28;20105;-87
2021/03/14 03:10:25;;;;;;;0.93;0.43;;;2.70;99.90;;;;;;4995360;28;20026;-87
2021/03/14 03:12:51;;;;;;;1.03;0.20;;;2.70;99.90;;;;;;5002107;28;20551;-86
2021/03/14 03:15:19;;;;;;;0.67;0.20;;;2.60;99.90;;;;;;4998283;28;20109;-87
2021/03/14 03:17:45;;;;;;;0.63;0.30;;;2.60;99.90;;;;;;4997918;28;20014;-87
2021/03/14 03:20:12;;;;;;;0.80;0.30;;;2.60;99.90;;;;;;5010880;28;20014;-87
2021/03/14 03:22:38;;;;;;;1.03;0.30;;;2.60;99.90;;;;;;4997636;28;20025;-87
2021/03/14 03:25:06;;;;;;;1.03;0.20;;;2.60;99.90;;;;;;5002306;28;20022;-87
2021/03/14 03:27:34;;;;;;;1.47;0.30;;;2.60;99.90;;;;;;4999606;28;20024;-87
2021/03/14 03:29:59;;;;;;;1.17;0.20;;;2.60;99.90;;;;;;5000019;28;20081;-87
2021/03/14 03:32:25;;;;;;;0.77;0.30;;;2.60;99.90;;;;;;4998912;28;20113;-86
2021/03/14 03:34:51;;;;;;;2.00;0.40;;;2.50;99.90;;;;;;5001222;28;20432;-87
2021/03/14 03:37:16;;;;;;;2.17;0.30;;;2.50;99.90;;;;;;4998034;28;20038;-87
2021/03/14 03:39:42;;;;;;;1.70;0.30;;;2.50;99.90;;;;;;4998055;28;20021;-87
2021/03/14 03:42:18;;;;;;;0.83;0.30;;;2.60;99.90;;;;;;5015683;28;20026;-87
2021/03/14 03:44:44;;;;;;;0.67;0.30;;;2.50;99.90;;;;;;5015377;28;20022;-86
2021/03/14 03:47:13;;;;;;;1.37;0.40;;;2.50;99.90;;;;;;4998640;28;20022;-87
2021/03/14 03:49:40;;;;;;;1.47;0.50;;;2.50;99.90;;;;;;5004303;28;20041;-87
2021/03/14 03:52:06;;;;;;;0.77;0.30;;;2.50;99.90;;;;;;5000768;28;20041;-87
2021/03/14 03:54:33;;;;;;;0.70;0.30;;;2.40;99.90;;;;;;5005980;28;20026;-87
2021/03/14 03:56:59;;;;;;;1.20;0.40;;;2.50;99.90;;;;;;4999744;28;20045;-87
2021/03/14 03:59:27;;;;;;;1.13;0.50;;;2.40;99.90;;;;;;4997637;28;20029;-87
2021/03/14 04:01:53;;;;;;;1.93;0.50;;;2.50;99.90;;;;;;4996014;28;20038;-88
2021/03/14 04:04:21;;;;;;;3.47;0.70;;;2.40;99.90;;;;;;4996498;28;20462;-87
2021/03/14 04:06:55;;;;;;;1.30;0.60;;;2.50;99.90;;;;;;5014952;28;20475;-87
2021/03/14 04:09:22;;;;;;;1.00;0.50;;;2.40;99.90;;;;;;4993621;28;20045;-87
2021/03/14 04:11:49;;;;;;;1.17;0.50;;;2.40;99.90;;;;;;4998819;28;20424;-87
2021/03/14 04:14:15;;;;;;;1.20;0.60;;;2.40;99.90;;;;;;5013698;28;20493;-87
2021/03/14 04:16:42;;;;;;;2.77;0.67;;;2.40;99.90;;;;;;4997341;28;20026;-87
2021/03/14 04:19:11;;;;;;;1.17;0.60;;;2.40;99.90;;;;;;4996877;28;20022;-88
2021/03/14 04:21:38;;;;;;;1.87;0.70;;;2.30;99.90;;;;;;5000686;28;20025;-87
2021/03/14 04:24:06;;;;;;;3.10;0.70;;;2.40;99.90;;;;;;4998613;28;20065;-87
2021/03/14 04:26:31;;;;;;;1.90;0.80;;;2.30;99.90;;;;;;4997153;28;20032;-87
2021/03/14 04:28:59;;;;;;;1.87;0.70;;;2.30;99.90;;;;;;5004674;28;20030;-86
2021/03/14 04:31:26;;;;;;;1.93;0.70;;;2.30;99.90;;;;;;4997794;28;20033;-87
2021/03/14 04:33:52;;;;;;;1.40;0.67;;;2.20;99.90;;;;;;5000129;28;20050;-88
2021/03/14 04:36:20;;;;;;;2.90;1.00;;;2.20;99.90;;;;;;4995212;28;20791;-87
2021/03/14 04:38:46;;;;;;;4.87;0.87;;;2.20;99.90;;;;;;4995473;28;20081;-87
2021/03/14 04:41:12;;;;;;;2.90;0.90;;;2.20;99.90;;;;;;4996780;28;20033;-87
2021/03/14 04:43:40;;;;;;;2.53;0.93;;;2.20;99.90;;;;;;5000138;28;20037;-87
2021/03/14 04:46:06;;;;;;;2.03;0.80;;;2.20;99.90;;;;;;4998393;28;20030;-87
2021/03/14 04:48:31;;;;;;;2.70;1.00;;;2.10;99.90;;;;;;4996758;28;20080;-87
2021/03/14 04:50:58;;;;;;;2.10;0.90;;;2.10;99.90;;;;;;4995944;28;20049;-88
2021/03/14 04:53:27;;;;;;;3.97;1.63;;;2.10;99.90;;;;;;4995871;28;20022;-87
2021/03/14 04:55:54;;;;;;;2.10;1.07;;;2.10;99.90;;;;;;4998225;28;20026;-87
2021/03/14 09:07:12;;;;;;;3.50;0.70;;;5.10;99.90;;;;;;4989582;28;20118;-91
2021/03/14 09:09:39;;;;;;;3.87;0.47;;;5.20;99.90;;;;;;4968967;28;20081;-93
2021/03/14 09:12:11;;;;;;;2.27;0.50;;;5.10;99.90;;;;;;4967046;28;20027;-91
2021/03/14 09:14:48;;;;;;;4.50;0.50;;;5.00;99.90;;;;;;4979080;28;20105;-93
2021/03/14 09:17:38;;;;;;;2.87;0.50;;;5.00;99.90;;;;;;4998806;28;20026;-95
2021/03/14 09:20:06;;;;;;;3.57;0.57;;;5.00;99.90;;;;;;4999395;28;20041;-93
2021/03/14 09:22:33;;;;;;;2.57;0.50;;;5.00;99.90;;;;;;4995983;28;20050;-94
2021/03/14 09:25:01;;;;;;;5.53;0.60;;;5.00;99.90;;;;;;4997672;28;20032;-93
2021/03/14 09:27:32;;;;;;;4.93;0.70;;;4.90;99.90;;;;;;5008689;28;20036;-94
2021/03/14 09:30:14;;;;;;;3.60;0.57;;;4.90;99.90;;;;;;4986506;28;20030;-93
2021/03/14 09:32:48;;;;;;;4.38;0.68;;;4.80;99.90;;;;;;4985556;28;20120;-92
2021/03/14 09:35:20;;;;;;;2.07;0.50;;;4.70;99.90;;;;;;4986058;28;20046;-92
2021/03/14 09:37:55;;;;;;;5.93;0.52;;;4.80;99.90;;;;;;4994619;28;20026;-94
2021/03/14 09:40:22;;;;;;;6.60;0.50;;;4.80;99.90;;;;;;5000117;28;20034;-93
2021/03/14 09:42:51;;;;;;;3.87;0.47;;;4.90;99.90;;;;;;5008721;28;20081;-93
2021/03/14 09:45:22;;;;;;;5.33;0.50;;;4.90;99.90;;;;;;5003509;28;20034;-95
2021/03/14 09:48:07;;;;;;;2.23;0.57;;;4.90;99.90;;;;;;5008864;28;20045;-95
2021/03/14 09:50:39;;;;;;;5.27;0.70;;;4.90;99.90;;;;;;5006707;28;20025;-93
2021/03/14 09:53:08;;;;;;;3.90;0.77;;;5.20;99.90;;;;;;5002456;28;20048;-92
2021/03/14 10:50:45;;;;;;;4.97;1.00;;;6.00;99.90;;;;;;4983917;28;20499;-90
2021/03/14 10:53:16;;;;;;;4.73;0.80;;;5.90;99.90;;;;;;4980445;28;20030;-90
2021/03/14 10:55:44;;;;;;;4.63;0.57;;;5.90;99.90;;;;;;4983485;28;20033;-89
2021/03/14 10:58:17;;;;;;;3.93;0.53;;;5.90;99.90;;;;;;4985865;28;20018;-89
2021/03/14 11:00:48;;;;;;;2.60;0.40;;;5.90;99.90;;;;;;4971020;28;20029;-88
2021/03/14 11:03:39;;;;;;;3.30;0.77;;;5.90;99.90;;;;;;4975500;28;20068;-93
2021/03/14 11:06:26;;;;;;;2.73;0.50;;;5.80;99.90;;;;;;4991915;28;20098;-88
2021/03/14 11:08:52;;;;;;;4.40;0.60;;;5.80;99.90;;;;;;4986380;28;20049;-87
2021/03/14 11:11:22;;;;;;;2.10;0.47;;;6.00;99.90;;;;;;4985041;28;20093;-88
2021/03/14 11:13:48;;;;;;;4.67;0.90;;;6.10;99.90;;;;;;4972311;28;20070;-86
2021/03/14 11:16:14;;;;;;;5.63;1.60;;;6.40;99.90;;;;;;4974078;28;20022;-87
2021/03/14 11:18:40;;;;;;;3.70;0.97;;;6.50;99.90;;;;;;4989683;28;20031;-87
2021/03/14 11:21:08;;;;;;;2.13;0.40;;;6.60;99.90;;;;;;4981079;28;20045;-90
2021/03/14 11:23:33;;;;;;;6.97;0.80;;;6.50;99.90;;;;;;5004630;28;20046;-88
2021/03/14 11:25:59;;;;;;;3.27;0.60;;;6.50;99.90;;;;;;4978805;28;20112;-88
2021/03/14 11:28:25;;;;;;;4.13;0.53;;;6.30;99.90;;;;;;4980021;28;20128;-87
2021/03/14 11:30:51;;;;;;;5.43;0.60;;;6.30;99.90;;;;;;4983710;28;20049;-88
2021/03/14 11:33:17;;;;;;;4.10;0.57;;;6.30;99.90;;;;;;4976895;28;20026;-87
2021/03/14 11:35:44;;;;;;;4.67;0.43;;;6.40;99.90;;;;;;4978246;28;20145;-88
2021/03/14 11:38:12;;;;;;;6.60;0.50;;;6.80;99.90;;;;;;4993300;28;20030;-87
2021/03/14 11:40:39;;;;;;;5.00;0.50;;;7.10;99.90;;;;;;4974486;28;20050;-87
2021/03/14 11:43:05;;;;;;;6.87;0.73;;;7.20;99.90;;;;;;4989014;28;20040;-87
2021/03/14 11:45:31;;;;;;;4.30;0.60;;;7.30;99.90;;;;;;4974764;28;20022;-86
2021/03/14 11:47:56;;;;;;;3.57;0.57;;;7.20;99.90;;;;;;4974507;28;20542;-88
2021/03/14 11:50:22;;;;;;;3.97;0.50;;;7.30;99.90;;;;;;4980798;28;20058;-87
2021/03/14 11:52:49;;;;;;;4.17;0.57;;;7.30;99.90;;;;;;4977800;28;20026;-88
2021/03/14 11:55:16;;;;;;;5.43;0.60;;;7.10;99.90;;;;;;4973477;28;20460;-87
2021/03/14 11:57:42;;;;;;;6.83;0.70;;;7.00;98.20;;;;;;4977026;28;20026;-87
2021/03/14 12:00:09;;;;;;;5.03;0.40;;;7.00;99.90;;;;;;4975887;28;20022;-87
2021/03/14 12:02:35;;;;;;;3.80;0.50;;;6.80;99.90;;;;;;4974379;28;20388;-87
2021/03/14 12:05:01;;;;;;;5.30;0.40;;;6.80;99.60;;;;;;4977252;28;20026;-87
2021/03/14 12:07:26;;;;;;;3.93;0.50;;;6.90;99.90;;;;;;4976620;28;20034;-86
2021/03/14 12:09:53;;;;;;;5.93;0.77;;;6.80;98.80;;;;;;4971733;28;20034;-86
2021/03/14 12:12:19;;;;;;;3.33;0.50;;;6.70;99.60;;;;;;4991854;28;20113;-87
2021/03/14 12:14:45;;;;;;;4.67;0.53;;;6.50;99.90;;;;;;4979010;28;20121;-87
2021/03/14 12:17:10;;;;;;;3.13;0.43;;;6.50;99.90;;;;;;4976343;28;20107;-89
2021/03/14 12:19:36;;;;;;;3.20;0.50;;;6.50;99.90;;;;;;4975006;28;20026;-87
2021/03/14 12:22:02;;;;;;;3.63;0.40;;;6.40;99.90;;;;;;4974124;28;20117;-87
2021/03/14 12:24:28;;;;;;;4.80;0.67;;;6.30;99.90;;;;;;4980043;28;20056;-87
2021/03/14 12:26:54;;;;;;;1.93;0.60;;;6.10;99.90;;;;;;4971964;28;20299;-87
2021/03/14 12:29:19;;;;;;;2.63;0.63;;;5.90;99.90;;;;;;4975863;28;20165;-87
2021/03/14 12:31:45;;;;;;;3.47;0.60;;;5.70;99.90;;;;;;4994054;28;20033;-87
2021/03/14 12:34:11;;;;;;;6.00;0.63;;;5.60;99.90;;;;;;4972407;28;20482;-87
2021/03/14 12:36:37;;;;;;;3.97;0.57;;;5.50;99.90;;;;;;4969652;28;20117;-86
2021/03/14 12:39:03;;;;;;;5.23;0.93;;;5.50;99.90;;;;;;4974240;28;20049;-87
2021/03/14 12:41:29;;;;;;;3.83;0.60;;;5.40;99.90;;;;;;4973912;28;20089;-88
2021/03/14 12:43:54;;;;;;;4.23;0.40;;;5.30;99.90;;;;;;4976335;28;20030;-87
2021/03/14 12:46:20;;;;;;;4.27;0.50;;;5.30;99.90;;;;;;4977995;28;20041;-87
2021/03/14 12:48:46;;;;;;;3.20;0.50;;;5.30;99.90;;;;;;4994306;28;20037;-88
2021/03/14 12:51:13;;;;;;;5.93;0.60;;;5.10;99.90;;;;;;4975414;28;20097;-87
2021/03/14 12:53:38;;;;;;;2.73;0.60;;;5.00;99.90;;;;;;4977017;28;20526;-87
2021/03/14 12:56:05;;;;;;;4.90;0.67;;;4.90;99.90;;;;;;4978885;28;20054;-88
2021/03/14 12:58:31;;;;;;;3.63;0.60;;;4.90;99.90;;;;;;4971583;28;20059;-89
2021/03/14 13:00:57;;;;;;;3.93;0.87;;;4.80;99.90;;;;;;4992959;28;20096;-87
2021/03/14 13:03:23;;;;;;;4.53;0.73;;;4.80;99.90;;;;;;4974509;28;20026;-88
2021/03/14 13:05:48;;;;;;;4.40;0.70;;;4.70;99.90;;;;;;4974903;28;20086;-88
2021/03/14 13:08:14;;;;;;;2.77;0.60;;;4.50;99.90;;;;;;4974912;28;20113;-88
2021/03/14 13:10:40;;;;;;;8.67;0.70;;;4.40;99.90;;;;;;4989586;28;20515;-88
2021/03/14 13:13:07;;;;;;;5.57;0.90;;;4.40;99.90;;;;;;4972123;28;20030;-88
2021/03/14 13:15:33;;;;;;;4.87;0.80;;;4.40;99.90;;;;;;4963833;28;20487;-89
2021/03/14 13:18:00;;;;;;;4.57;0.80;;;4.40;99.90;;;;;;4971930;28;20063;-88
2021/03/14 13:20:26;;;;;;;7.43;0.80;;;4.40;99.90;;;;;;4973230;28;20427;-90
2021/03/14 13:22:55;;;;;;;9.17;1.27;;;4.50;99.90;;;;;;4972650;28;20076;-88
2021/03/14 13:25:23;;;;;;;6.20;0.80;;;4.50;99.90;;;;;;4970709;28;20038;-89
2021/03/14 13:27:49;;;;;;;6.40;1.20;;;4.50;99.90;;;;;;4975978;28;20372;-88
2021/03/14 13:30:16;;;;;;;4.63;1.03;;;4.50;99.90;;;;;;4977338;28;20582;-89
2021/03/14 13:32:43;;;;;;;6.33;0.93;;;4.50;99.90;;;;;;4973829;28;20037;-89
2021/03/14 13:35:09;;;;;;;6.50;1.13;;;4.30;99.90;;;;;;4979102;28;20109;-89
2021/03/14 13:37:35;;;;;;;5.83;0.80;;;4.30;99.90;;;;;;4974354;28;20026;-88
2021/03/14 13:40:01;;;;;;;5.97;1.00;;;4.30;99.90;;;;;;4976511;28;20396;-89
2021/03/14 13:42:28;;;;;;;5.57;1.03;;;4.30;99.90;;;;;;4975174;28;20105;-88
2021/03/14 13:44:55;;;;;;;3.17;0.73;;;4.50;99.90;;;;;;4972375;28;20036;-89
2021/03/14 13:47:21;;;;;;;5.10;1.00;;;4.60;99.90;;;;;;4973012;28;20496;-88
2021/03/14 13:49:47;;;;;;;2.57;0.80;;;4.60;99.90;;;;;;4981073;28;20613;-90
2021/03/14 13:52:22;;;;;;;6.60;1.07;;;4.60;99.90;;;;;;5011345;28;20057;-88
2021/03/14 13:54:48;;;;;;;4.43;1.07;;;4.70;99.90;;;;;;4993546;28;20030;-89
2021/03/14 13:57:17;;;;;;;4.30;0.87;;;4.70;99.90;;;;;;4980374;28;20558;-88
2021/03/14 13:59:42;;;;;;;8.10;1.73;;;4.70;99.90;;;;;;4973931;28;20058;-89
2021/03/14 14:02:08;;;;;;;4.37;0.90;;;4.80;99.90;;;;;;4975989;28;20026;-89
2021/03/14 14:04:34;;;;;;;2.80;0.90;;;4.80;99.90;;;;;;4971060;28;20033;-89
2021/03/14 14:06:59;;;;;;;6.57;0.90;;;4.70;99.90;;;;;;4973909;28;20033;-89
2021/03/14 14:09:25;;;;;;;7.20;1.40;;;4.70;99.90;;;;;;4996389;28;20501;-89
2021/03/14 14:11:52;;;;;;;5.87;1.40;;;4.60;99.90;;;;;;4974860;28;20034;-87
2021/03/14 14:14:17;;;;;;;8.50;2.07;;;4.60;99.90;;;;;;4994157;28;20076;-87
2021/03/14 14:16:43;;;;;;;6.07;1.03;;;4.70;99.90;;;;;;4973774;28;20058;-88
2021/03/14 14:19:09;;;;;;;6.83;1.40;;;4.60;99.90;;;;;;4974165;28;20133;-88
2021/03/14 14:21:35;;;;;;;4.43;1.40;;;4.60;99.90;;;;;;4975822;28;20443;-89
2021/03/14 14:24:03;;;;;;;14.83;3.40;;;4.50;99.90;;;;;;4965295;28;20065;-88
2021/03/14 14:26:30;;;;;;;5.63;1.57;;;4.40;99.90;;;;;;4977454;28;20483;-88
2021/03/14 14:28:55;;;;;;;3.87;1.03;;;4.40;99.90;;;;;;4990543;28;20455;-88
2021/03/14 14:31:21;;;;;;;6.30;1.47;;;4.20;99.90;;;;;;4977245;28;20065;-88
2021/03/14 14:33:47;;;;;;;4.93;1.33;;;4.20;99.90;;;;;;4978108;28;20072;-88
2021/03/14 14:36:12;;;;;;;5.93;1.30;;;4.10;99.90;;;;;;4969606;28;20502;-89
2021/03/14 14:38:38;;;;;;;3.57;1.00;;;4.00;99.90;;;;;;4973864;28;20032;-89
2021/03/14 14:41:04;;;;;;;2.87;0.80;;;4.10;99.90;;;;;;4976781;28;20389;-88
2021/03/14 14:43:29;;;;;;;4.97;0.97;;;4.10;99.90;;;;;;4976226;28;20439;-88
2021/03/14 14:45:55;;;;;;;2.03;0.67;;;4.00;99.90;;;;;;4993698;28;20014;-89
2021/03/14 14:48:21;;;;;;;4.27;0.97;;;4.00;99.90;;;;;;5003915;28;20011;-89
2021/03/14 14:50:46;;;;;;;3.93;0.70;;;4.10;99.90;;;;;;5004940;28;20026;-88
2021/03/14 14:53:12;;;;;;;3.80;1.00;;;4.10;99.90;;;;;;4983730;28;20096;-88
2021/03/14 14:55:38;;;;;;;0.90;0.40;;;4.30;99.90;;;;;;4982903;28;20045;-89
2021/03/14 14:58:03;;;;;;;1.57;0.40;;;4.30;99.90;;;;;;4974775;28;20022;-88
2021/03/14 15:00:29;;;;;;;1.97;0.50;;;4.40;99.90;;;;;;4983381;28;20029;-89
2021/03/14 15:02:54;;;;;;;5.67;0.97;;;4.40;99.90;;;;;;4976664;28;20030;-89
2021/03/14 15:05:20;;;;;;;5.63;1.20;;;4.50;99.90;;;;;;4975394;28;21425;-88
2021/03/14 15:07:46;;;;;;;4.37;1.00;;;4.50;99.90;;;;;;4977091;28;20026;-88
2021/03/14 15:10:14;;;;;;;3.10;0.80;;;4.50;99.90;;;;;;4972487;28;20042;-89
2021/03/14 15:12:40;;;;;;;1.17;0.37;;;4.40;99.90;;;;;;4978083;28;20037;-88
2021/03/14 15:15:13;;;;;;;6.07;1.20;;;4.40;99.90;;;;;;4986388;28;20033;-88
2021/03/14 15:17:38;;;;;;;;;;;4.30;99.90;;;;;;4975715;28;20027;-88
2021/03/14 15:20:05;;;;;;;2.53;0.50;;;4.30;99.90;;;;;;4976523;28;20405;-87
2021/03/14 15:22:31;;;;;;;0.60;0.30;;;4.20;99.90;;;;;;4986321;28;20391;-88
2021/03/14 15:24:56;;;;;;;1.17;0.37;;;4.20;99.90;;;;;;4981942;28;20117;-89
2021/03/14 15:27:22;;;;;;;1.07;0.30;;;4.20;99.90;;;;;;4974140;28;20077;-89
2021/03/14 15:29:48;;;;;;;1.73;0.50;;;4.30;99.90;;;;;;4985311;28;20050;-89
2021/03/14 15:32:14;;;;;;;2.13;0.33;;;4.20;99.90;;;;;;4989252;28;20041;-88
2021/03/14 15:34:40;;;;;;;1.10;0.60;;;4.30;99.90;;;;;;4986561;28;20023;-89
2021/03/14 15:37:05;;;;;;;1.57;0.70;;;4.30;99.90;;;;;;4989080;28;20030;-88
2021/03/14 15:39:31;;;;;;;2.37;0.73;;;4.30;99.90;;;;;;4985651;28;20109;-88
2021/03/14 15:41:57;;;;;;;1.40;0.60;;;4.20;99.90;;;;;;4990183;28;20041;-88
2021/03/14 15:44:22;;;;;;;2.10;0.90;;;4.10;99.90;;;;;;4973986;28;20046;-89
2021/03/14 15:46:48;;;;;;;3.40;0.70;;;4.10;99.90;;;;;;4983792;28;20026;-89
2021/03/14 15:49:13;;;;;;;5.30;1.00;;;4.10;99.90;;;;;;4974397;28;20042;-88
2021/03/14 15:51:39;;;;;;;2.90;1.00;;;4.10;99.90;;;;;;4988692;28;20026;-88
2021/03/14 15:54:05;;;;;;;2.50;1.10;;;4.10;99.90;;;;;;4973707;28;20026;-90
2021/03/14 15:56:31;;;;;;;2.47;1.07;;;4.10;99.90;;;;;;4975604;28;20037;-89
2021/03/14 15:58:57;;;;;;;2.57;1.27;;;4.20;99.90;;;;;;4976016;28;20030;-87
2021/03/14 16:01:22;;;;;;;2.83;0.90;;;4.10;99.90;;;;;;4975138;28;20037;-88
2021/03/14 16:03:48;;;;;;;3.17;1.20;;;4.20;99.90;;;;;;4970995;28;20117;-88
2021/03/14 16:06:13;;;;;;;2.93;1.03;;;4.20;99.90;;;;;;4973154;28;20038;-87
2021/03/14 16:08:39;;;;;;;2.57;1.20;;;4.10;99.90;;;;;;4979045;28;20448;-88
2021/03/14 16:11:04;;;;;;;2.63;1.07;;;4.10;99.90;;;;;;4977131;28;20030;-88
2021/03/14 16:13:30;;;;;;;2.53;1.10;;;4.20;99.90;;;;;;4976043;28;20037;-88
2021/03/14 16:15:56;;;;;;;4.80;1.43;;;4.10;99.90;;;;;;4976402;28;20106;-89
2021/03/14 16:18:21;;;;;;;3.20;1.40;;;4.10;99.90;;;;;;4978533;28;20029;-88
2021/03/14 16:20:48;;;;;;;2.97;1.47;;;4.10;99.90;;;;;;4987035;28;20034;-88
2021/03/14 16:23:14;;;;;;;2.60;1.10;;;4.10;99.90;;;;;;4980013;28;20041;-88
2021/03/14 16:25:40;;;;;;;3.27;1.40;;;4.20;99.90;;;;;;4982573;28;20038;-88
2021/03/14 16:28:06;;;;;;;5.33;1.90;;;4.20;99.90;;;;;;4977150;28;20468;-88
2021/03/14 16:30:32;;;;;;;3.60;1.57;;;4.10;99.90;;;;;;4976730;28;20036;-88
2021/03/14 16:32:57;;;;;;;4.00;1.73;;;4.10;99.90;;;;;;4976515;28;20092;-88
2021/03/14 16:35:23;;;;;;;4.33;1.80;;;4.20;99.90;;;;;;4987051;28;20027;-87
2021/03/14 16:37:52;;;;;;;3.87;1.90;;;4.20;99.90;;;;;;4974090;28;20054;-88
2021/03/14 16:40:19;;;;;;;3.03;1.70;;;4.10;99.90;;;;;;4975305;28;20541;-88
2021/03/14 16:42:45;;;;;;;5.27;1.93;;;4.10;99.90;;;;;;4972508;28;20120;-90
2021/03/14 16:45:11;;;;;;;3.03;1.63;;;4.10;99.90;;;;;;4978332;28;20479;-88
2021/03/14 16:47:37;;;;;;;3.87;1.97;;;4.10;99.90;;;;;;4978754;28;20037;-89
2021/03/14 16:50:05;;;;;;;4.60;2.03;;;4.10;99.90;;;;;;4973142;28;20034;-88
2021/03/14 16:52:31;;;;;;;3.10;1.90;;;4.00;99.90;;;;;;4984397;28;20487;-89
2021/03/14 16:54:56;;;;;;;6.13;2.00;;;4.00;99.90;;;;;;4989355;28;20026;-89
2021/03/14 16:57:22;;;;;;;4.37;1.83;;;3.90;99.90;;;;;;4979205;28;20022;-89
2021/03/14 16:59:48;;;;;;;4.87;2.30;;;3.90;99.90;;;;;;4995227;28;20033;-88
2021/03/14 17:02:13;;;;;;;4.37;2.10;;;3.90;99.90;;;;;;4977863;28;20058;-89
2021/03/14 17:04:39;;;;;;;5.40;2.27;;;3.90;99.90;;;;;;4981694;28;20037;-88
2021/03/14 17:07:06;;;;;;;5.83;2.53;;;3.90;99.90;;;;;;4995416;28;20112;-88
2021/03/14 17:09:31;;;;;;;7.17;2.90;;;3.80;99.90;;;;;;4981229;28;20041;-89
2021/03/14 17:12:00;;;;;;;6.43;3.13;;;3.80;99.90;;;;;;4977627;28;20117;-88
2021/03/14 17:14:25;;;;;;;5.10;2.70;;;3.80;99.90;;;;;;4986819;28;20110;-88
2021/03/14 17:16:51;;;;;;;6.27;2.60;;;3.80;99.90;;;;;;4977273;28;20142;-89
2021/03/14 17:19:17;;;;;;;5.07;2.90;;;3.80;99.90;;;;;;4976828;28;20030;-89
2021/03/14 17:21:42;;;;;;;5.87;2.90;;;3.70;99.90;;;;;;4979152;28;20040;-89
2021/03/14 17:24:08;;;;;;;4.77;2.40;;;3.70;99.90;;;;;;4996196;28;20045;-89
2021/03/14 17:26:34;;;;;;;5.57;2.10;;;3.70;99.90;;;;;;4997747;28;20027;-88
2021/03/14 17:29:00;;;;;;;5.97;2.70;;;3.70;99.90;;;;;;4979721;28;20034;-88
2021/03/14 17:31:25;;;;;;;4.60;2.50;;;3.60;99.90;;;;;;4973723;28;20035;-89
2021/03/14 17:33:52;;;;;;;4.70;2.20;;;3.50;99.90;;;;;;4984569;28;20042;-89
2021/03/14 17:36:19;;;;;;;3.77;2.27;;;3.60;99.90;;;;;;4984282;28;20019;-89
2021/03/14 17:38:45;;;;;;;4.60;2.80;;;3.50;99.90;;;;;;4983807;28;20048;-88
2021/03/14 17:41:10;;;;;;;4.47;2.43;;;3.40;99.90;;;;;;4981529;28;20057;-88
2021/03/14 17:43:36;;;;;;;3.93;2.40;;;3.50;99.90;;;;;;4979086;28;20371;-88
2021/03/14 17:46:03;;;;;;;4.13;2.07;;;3.50;99.90;;;;;;4997921;28;20143;-90
2021/03/14 17:48:28;;;;;;;5.50;2.60;;;3.40;99.90;;;;;;5005857;28;20026;-88
2021/03/14 17:50:54;;;;;;;4.87;2.30;;;3.40;99.90;;;;;;4988708;28;20609;-88
2021/03/14 17:53:21;;;;;;;4.20;2.07;;;3.50;99.90;;;;;;4986080;28;20026;-88
2021/03/14 17:55:49;;;;;;;4.13;2.23;;;3.40;99.90;;;;;;4983776;28;20100;-88
2021/03/14 17:58:15;;;;;;;4.87;2.50;;;3.30;99.90;;;;;;4987564;28;20110;-89
2021/03/14 18:00:41;;;;;;;4.60;2.27;;;3.40;99.90;;;;;;4988737;28;20035;-88